Time;durP1;ratioP1;P1;durP2;ratioP2;P2;SDS_P1;SDS_P2;PMS_P1;PMS_P2;Temp;Humidity;BMP_temperature;BMP_pressure;BME280_temperature;BME280_humidity;BME280_pressure;Samples;Min_cycle;Max_cycle;Signal;HPM_P1;HPM_P2
2023/10/15 00:00:07;;;;;;;;;;;11.30;99.90;;;;;;4919636;29;19962;-77
2023/10/15 00:02:33;;;;;;;;;;;11.30;99.90;;;;;;4920519;29;19959;-77
2023/10/15 00:05:01;;;;;;;;;;;11.20;99.90;;;;;;4920065;29;19907;-76
2023/10/15 00:07:26;;;;;;;;;;;11.20;99.90;;;;;;4919140;29;20346;-76
2023/10/15 00:09:52;;;;;;;;;;;11.10;99.90;;;;;;4902338;29;19994;-72
2023/10/15 00:12:17;;;;;;;;;;;11.10;99.90;;;;;;4908143;29;19915;-71
2023/10/15 00:14:43;;;;;;;;;;;11.10;99.90;;;;;;4901133;29;19908;-72
2023/10/15 00:17:09;;;;;;;;;;;11.00;99.90;;;;;;4883858;29;19950;-72
2023/10/15 00:19:35;;;;;;;;;;;11.00;99.90;;;;;;4901152;29;19918;-77
2023/10/15 00:22:02;;;;;;;;;;;11.00;99.90;;;;;;4900852;29;19907;-71
2023/10/15 00:24:27;;;;;;;;;;;11.00;99.90;;;;;;4900652;29;19915;-72
2023/10/15 00:26:53;;;;;;;;;;;10.90;99.90;;;;;;4900844;29;19978;-72
2023/10/15 00:29:19;;;;;;;;;;;10.90;99.90;;;;;;4900566;29;19908;-76
2023/10/15 00:31:47;;;;;;;;;;;10.90;99.90;;;;;;4900404;29;19912;-77
2023/10/15 00:34:12;;;;;;;;;;;10.90;99.90;;;;;;4900561;29;19908;-71
2023/10/15 00:36:39;;;;;;;;;;;10.90;99.90;;;;;;4883793;29;19907;-72
2023/10/15 00:39:11;;;;;;;;;;;10.90;99.90;;;;;;4900713;29;19930;-76
2023/10/15 00:41:36;;;;;;;;;;;10.80;99.90;;;;;;4900518;29;19923;-76
2023/10/15 00:44:06;;;;;;;;;;;10.80;99.90;;;;;;4900903;29;19993;-77
2023/10/15 00:46:37;;;;;;;;;;;10.80;99.90;;;;;;4897660;29;19958;-77
2023/10/15 00:49:09;;;;;;;;;;;10.80;99.90;;;;;;4899214;29;20021;-72
2023/10/15 00:51:41;;;;;;;;;;;10.80;99.90;;;;;;4915368;29;19961;-71
2023/10/15 00:54:11;;;;;;;;;;;10.80;99.90;;;;;;4918331;29;19911;-77
2023/10/15 00:56:37;;;;;;;;;;;10.70;99.90;;;;;;4917984;29;19955;-77
2023/10/15 01:02:13;;;;;;;;;;;10.60;99.90;;;;;;4934254;29;19907;-76
2023/10/15 01:04:24;;;;;;;;;;;10.60;99.90;;;;;;4930277;29;19989;-72
2023/10/15 01:06:50;;;;;;;;;;;10.50;99.90;;;;;;4937933;29;19910;-77
2023/10/15 01:09:20;;;;;;;;;;;10.50;99.90;;;;;;4928367;29;19914;-72
2023/10/15 01:11:55;;;;;;;;;;;10.50;99.90;;;;;;4909925;29;19907;-77
2023/10/15 01:14:37;;;;;;;;;;;10.50;99.90;;;;;;4899337;29;20409;-72
2023/10/15 01:17:04;;;;;;;;;;;10.40;99.90;;;;;;4900261;29;20371;-71
2023/10/15 01:19:33;;;;;;;;;;;10.40;99.90;;;;;;4899664;29;19907;-77
2023/10/15 01:22:02;;;;;;;;;;;10.30;99.90;;;;;;4899786;29;19994;-76
2023/10/15 01:24:28;;;;;;;;;;;10.30;99.90;;;;;;4899838;29;19914;-76
2023/10/15 01:27:04;;;;;;;;;;;10.30;99.90;;;;;;4900011;29;19912;-71
2023/10/15 01:29:33;;;;;;;;;;;10.30;99.90;;;;;;4899300;29;19907;-71
2023/10/15 01:32:03;;;;;;;;;;;10.20;99.90;;;;;;4898257;29;19915;-77
2023/10/15 01:34:31;;;;;;;;;;;10.20;99.90;;;;;;4899853;29;20391;-71
2023/10/15 01:36:57;;;;;;;;;;;10.20;99.90;;;;;;4899664;29;20374;-76
2023/10/15 01:40:26;;;;;;;;;;;10.20;99.90;;;;;;4898305;29;19959;-71
2023/10/15 01:42:20;;;;;;;;;;;10.30;99.90;;;;;;4898064;29;19911;-72
2023/10/15 01:44:48;;;;;;;;;;;10.30;99.90;;;;;;4903124;29;20016;-76
2023/10/15 01:47:14;;;;;;;;;;;10.30;99.90;;;;;;4918127;29;20006;-71
2023/10/15 01:49:40;;;;;;;;;;;10.30;99.90;;;;;;4919146;29;20399;-76
2023/10/15 01:52:09;;;;;;;;;;;10.30;99.90;;;;;;4932879;29;20365;-71
2023/10/15 01:54:35;;;;;;;;;;;10.30;99.90;;;;;;4937154;29;20013;-71
2023/10/15 01:57:06;;;;;;;;;;;10.30;99.90;;;;;;4936718;29;19907;-72
2023/10/15 01:59:41;;;;;;;;;;;10.30;99.90;;;;;;4936955;29;19907;-72
2023/10/15 02:02:08;;;;;;;;;;;10.30;99.90;;;;;;4916703;29;19954;-76
2023/10/15 02:04:42;;;;;;;;;;;10.30;99.90;;;;;;4918079;29;20373;-72
2023/10/15 02:07:07;;;;;;;;;;;10.30;99.90;;;;;;4900717;29;19914;-72
2023/10/15 02:09:38;;;;;;;;;;;10.40;99.90;;;;;;4928312;29;19910;-72
2023/10/15 02:12:05;;;;;;;;;;;10.30;99.90;;;;;;4926722;29;19911;-72
2023/10/15 02:14:30;;;;;;;;;;;10.30;99.90;;;;;;4918008;29;19907;-77
2023/10/15 02:16:59;;;;;;;;;;;10.30;99.90;;;;;;4917781;29;19914;-77
2023/10/15 02:21:59;;;;;;;;;;;10.20;99.90;;;;;;4917767;29;19911;-71
2023/10/15 02:24:25;;;;;;;;;;;10.20;99.90;;;;;;4917685;29;19911;-76
2023/10/15 02:26:50;;;;;;;;;;;10.20;99.90;;;;;;4917614;29;19907;-76
2023/10/15 02:29:34;;;;;;;;;;;10.20;99.90;;;;;;4917771;29;19914;-76
2023/10/15 02:32:21;;;;;;;;;;;10.20;99.90;;;;;;4900631;29;20045;-76
2023/10/15 02:34:52;;;;;;;;;;;10.20;99.90;;;;;;4917453;29;19911;-71
2023/10/15 02:37:18;;;;;;;;;;;10.30;99.90;;;;;;4917210;29;19907;-72
2023/10/15 02:39:45;;;;;;;;;;;10.30;99.90;;;;;;4917577;29;19913;-75
2023/10/15 02:42:16;;;;;;;;;;;10.30;99.90;;;;;;4917532;29;19922;-76
2023/10/15 02:44:41;;;;;;;;;;;10.40;99.90;;;;;;4917516;29;19947;-77
2023/10/15 02:47:41;;;;;;;;;;;10.40;99.90;;;;;;4924811;29;20326;-76
2023/10/15 02:50:03;;;;;;;;;;;10.40;99.90;;;;;;4931531;29;20386;-76
2023/10/15 02:52:44;;;;;;;;;;;10.50;99.90;;;;;;4935129;29;20001;-76
2023/10/15 02:55:14;;;;;;;;;;;10.50;99.90;;;;;;4935882;29;20366;-76
2023/10/15 02:57:43;;;;;;;;;;;10.50;99.90;;;;;;4935927;29;19907;-73
2023/10/15 03:00:28;;;;;;;;;;;10.50;99.90;;;;;;4940381;29;19948;-72
2023/10/15 03:02:57;;;;;;;;;;;10.60;99.90;;;;;;4955254;29;19906;-77
2023/10/15 03:05:30;;;;;;;;;;;10.60;99.90;;;;;;4955437;29;19911;-77
2023/10/15 03:07:56;;;;;;;;;;;10.70;99.90;;;;;;4955219;29;19913;-77
2023/10/15 03:10:21;;;;;;;;;;;10.70;99.90;;;;;;4936152;29;19914;-72
2023/10/15 03:12:50;;;;;;;;;;;10.70;99.90;;;;;;4934309;29;19921;-72
2023/10/15 03:15:17;;;;;;;;;;;10.70;99.90;;;;;;4954724;29;19913;-77
2023/10/15 03:17:44;;;;;;;;;;;10.70;99.90;;;;;;4954988;29;19989;-72
2023/10/15 03:22:44;;;;;;;;;;;10.60;99.90;;;;;;4955254;29;19907;-77
2023/10/15 03:25:16;;;;;;;;;;;10.60;99.90;;;;;;4954888;29;19948;-72
2023/10/15 03:27:47;;;;;;;;;;;10.60;99.90;;;;;;4937741;29;19911;-72
2023/10/15 03:30:13;;;;;;;;;;;10.50;99.90;;;;;;4935293;29;20386;-77
2023/10/15 03:32:45;;;;;;;;;;;10.50;99.90;;;;;;4934389;29;19911;-76
2023/10/15 03:35:18;;;;;;;;;;;10.40;99.90;;;;;;4934428;29;19911;-77
2023/10/15 03:37:47;;;;;;;;;;;10.30;99.90;;;;;;4935702;29;19950;-72
2023/10/15 03:40:30;;;;;;;;;;;10.20;99.90;;;;;;4935886;29;19907;-72
2023/10/15 03:43:06;;;;;;;;;;;10.20;99.90;;;;;;4935695;29;19907;-76
2023/10/15 03:45:50;;;;;;;;;;;10.10;99.90;;;;;;4945199;29;19946;-76
2023/10/15 03:48:15;;;;;;;;;;;10.00;99.90;;;;;;4954729;29;19957;-77
2023/10/15 03:50:53;;;;;;;;;;;9.90;99.90;;;;;;4948788;29;20013;-76
2023/10/15 03:53:29;;;;;;;;;;;9.90;99.90;;;;;;4943825;29;20298;-76
2023/10/15 03:55:58;;;;;;;;;;;9.90;99.90;;;;;;4934792;29;19911;-76
2023/10/15 03:58:33;;;;;;;;;;;9.80;99.90;;;;;;4935491;29;19954;-71
2023/10/15 04:01:16;;;;;;;;;;;9.80;99.90;;;;;;4946372;29;19913;-77
2023/10/15 04:03:43;;;;;;;;;;;9.80;99.90;;;;;;4954533;29;19957;-71
2023/10/15 04:06:09;;;;;;;;;;;9.80;99.90;;;;;;4956557;28;19907;-72
2023/10/15 04:08:37;;;;;;;;;;;9.80;99.90;;;;;;4933853;29;20005;-76
2023/10/15 04:11:02;;;;;;;;;;;9.80;99.90;;;;;;4919824;29;19907;-76
2023/10/15 04:13:28;;;;;;;;;;;9.80;99.90;;;;;;4919744;29;19918;-76
2023/10/15 04:15:54;;;;;;;;;;;9.90;99.90;;;;;;4919945;29;20034;-72
2023/10/15 04:18:23;;;;;;;;;;;9.90;99.90;;;;;;4919793;29;19915;-71
2023/10/15 04:20:51;;;;;;;;;;;9.90;99.90;;;;;;4919952;29;19907;-72
2023/10/15 04:23:34;;;;;;;;;;;9.90;99.90;;;;;;4919667;29;19930;-77
2023/10/15 04:26:04;;;;;;;;;;;10.00;99.90;;;;;;4919584;29;19959;-77
2023/10/15 04:28:30;;;;;;;;;;;9.90;99.90;;;;;;4919771;29;19907;-71
2023/10/15 04:30:56;;;;;;;;;;;9.90;99.90;;;;;;4919882;29;19994;-72
2023/10/15 04:33:25;;;;;;;;;;;9.80;99.90;;;;;;4902451;29;20009;-71
2023/10/15 04:35:51;;;;;;;;;;;9.80;99.90;;;;;;4919760;29;19949;-72
2023/10/15 04:38:21;;;;;;;;;;;9.70;99.90;;;;;;4919324;29;19907;-76
2023/10/15 04:43:24;;;;;;;;;;;9.70;99.90;;;;;;4918762;29;19907;-71
2023/10/15 04:45:50;;;;;;;;;;;9.70;99.90;;;;;;4919438;29;19923;-72
2023/10/15 04:48:15;;;;;;;;;;;9.60;99.90;;;;;;4919340;29;20380;-77
2023/10/15 04:50:43;;;;;;;;;;;9.60;99.90;;;;;;4926946;29;19910;-77
2023/10/15 04:53:12;;;;;;;;;;;9.60;99.90;;;;;;4937895;29;19910;-76
2023/10/15 04:55:42;;;;;;;;;;;9.50;99.90;;;;;;4938278;29;19946;-72
2023/10/15 04:58:08;;;;;;;;;;;9.50;99.90;;;;;;4937710;29;20378;-71
2023/10/15 05:00:35;;;;;;;;;;;9.50;99.90;;;;;;4938194;29;19914;-77
2023/10/15 05:03:01;;;;;;;;;;;9.50;99.90;;;;;;4920864;29;19957;-77
2023/10/15 05:05:26;;;;;;;;;;;9.50;99.90;;;;;;4938208;29;19911;-77
2023/10/15 05:07:57;;;;;;;;;;;9.40;99.90;;;;;;4920775;29;20381;-72
2023/10/15 05:10:23;;;;;;;;;;;9.40;99.90;;;;;;4937453;29;20326;-72
2023/10/15 05:12:51;;;;;;;;;;;9.30;99.90;;;;;;4925083;29;19917;-72
2023/10/15 05:15:18;;;;;;;;;;;9.30;99.90;;;;;;4956772;29;19928;-77
2023/10/15 05:17:46;;;;;;;;;;;9.30;99.90;;;;;;4957002;28;19949;-76
2023/10/15 05:20:13;;;;;;;;;;;9.20;99.90;;;;;;4956894;29;20352;-71
2023/10/15 05:22:41;;;;;;;;;;;9.20;99.90;;;;;;4956846;29;19906;-71
2023/10/15 05:25:15;;;;;;;;;;;9.20;99.90;;;;;;4956749;29;20409;-72
2023/10/15 05:27:42;;;;;;;;;;;9.20;99.90;;;;;;4939425;29;19932;-77
2023/10/15 05:30:09;;;;;;;;;;;9.20;99.90;;;;;;4955536;29;20380;-77
2023/10/15 05:32:35;;;;;;;;;;;9.20;99.90;;;;;;4955787;29;20440;-77
2023/10/15 05:35:01;;;;;;;;;;;9.20;99.90;;;;;;4956779;29;19910;-72
2023/10/15 05:37:27;;;;;;;;;;;9.10;99.90;;;;;;4956477;29;19910;-72
2023/10/15 05:39:52;;;;;;;;;;;9.20;99.90;;;;;;4956285;29;20001;-71
2023/10/15 05:42:18;;;;;;;;;;;9.10;99.90;;;;;;4956664;29;19907;-77
2023/10/15 05:44:44;;;;;;;;;;;9.10;99.90;;;;;;4953176;29;19922;-72
2023/10/15 05:47:09;;;;;;;;;;;9.10;99.90;;;;;;4924264;29;19915;-71
2023/10/15 05:49:36;;;;;;;;;;;9.00;99.90;;;;;;4917387;29;20023;-76
2023/10/15 05:52:02;;;;;;;;;;;9.00;99.90;;;;;;4917078;29;19911;-71
2023/10/15 05:54:28;;;;;;;;;;;9.00;99.90;;;;;;4918283;29;19907;-77
2023/10/15 05:56:53;;;;;;;;;;;9.00;99.90;;;;;;4918244;29;19990;-77
2023/10/15 05:59:19;;;;;;;;;;;9.00;99.90;;;;;;4916462;29;19997;-72
2023/10/15 06:01:44;;;;;;;;;;;8.90;99.90;;;;;;4917999;29;19914;-72
2023/10/15 06:04:10;;;;;;;;;;;8.90;99.90;;;;;;4917894;29;19908;-77
2023/10/15 06:06:36;;;;;;;;;;;8.90;99.90;;;;;;4918269;29;20294;-76
2023/10/15 06:09:05;;;;;;;;;;;8.90;99.90;;;;;;4917331;29;20347;-76
2023/10/15 06:11:30;;;;;;;;;;;8.90;99.90;;;;;;4912181;29;19907;-76
2023/10/15 06:13:56;;;;;;;;;;;8.90;99.90;;;;;;4898827;29;19918;-71
2023/10/15 06:16:22;;;;;;;;;;;8.90;99.90;;;;;;4899040;29;19911;-72
2023/10/15 06:18:48;;;;;;;;;;;8.80;99.90;;;;;;4898616;29;19952;-76
2023/10/15 06:21:14;;;;;;;;;;;8.90;99.90;;;;;;4898797;29;19911;-76
2023/10/15 06:23:39;;;;;;;;;;;8.90;99.90;;;;;;4898534;29;19907;-76
2023/10/15 06:26:06;;;;;;;;;;;8.90;99.90;;;;;;4898503;29;19907;-71
2023/10/15 06:28:32;;;;;;;;;;;8.90;99.90;;;;;;4898254;29;19918;-72
2023/10/15 06:30:57;;;;;;;;;;;9.00;99.90;;;;;;4898735;29;19908;-77
2023/10/15 06:33:22;;;;;;;;;;;9.00;99.90;;;;;;4898480;29;19912;-76
2023/10/15 06:35:51;;;;;;;;;;;9.10;99.90;;;;;;4898549;29;19911;-76
2023/10/15 06:38:17;;;;;;;;;;;9.20;99.90;;;;;;4898385;29;20397;-72
2023/10/15 06:40:43;;;;;;;;;;;9.30;99.90;;;;;;4881557;29;19915;-72
2023/10/15 06:43:09;;;;;;;;;;;9.40;99.90;;;;;;4898565;29;19914;-72
2023/10/15 06:45:34;;;;;;;;;;;9.50;99.90;;;;;;4908126;29;19927;-71
2023/10/15 06:48:00;;;;;;;;;;;9.50;99.90;;;;;;4935174;29;19911;-77
2023/10/15 06:50:26;;;;;;;;;;;9.60;99.90;;;;;;4935388;29;19915;-71
2023/10/15 06:52:52;;;;;;;;;;;9.60;99.90;;;;;;4936001;29;20378;-72
2023/10/15 06:55:20;;;;;;;;;;;9.70;99.90;;;;;;4935359;29;19907;-71
2023/10/15 06:57:45;;;;;;;;;;;9.70;99.90;;;;;;4936431;29;19911;-72
2023/10/15 07:00:12;;;;;;;;;;;9.80;99.90;;;;;;4940383;29;20005;-77
2023/10/15 07:02:37;;;;;;;;;;;9.70;99.90;;;;;;4955734;29;19907;-71
2023/10/15 07:05:04;;;;;;;;;;;9.70;99.90;;;;;;4955144;29;19913;-71
2023/10/15 07:07:30;;;;;;;;;;;9.80;99.90;;;;;;4955065;29;19913;-71
2023/10/15 07:09:56;;;;;;;;;;;9.90;99.90;;;;;;4940559;29;19907;-71
2023/10/15 07:12:22;;;;;;;;;;;9.90;99.90;;;;;;4923805;29;19922;-76
2023/10/15 07:14:47;;;;;;;;;;;10.00;99.90;;;;;;4916920;29;19997;-71
2023/10/15 07:17:13;;;;;;;;;;;10.00;99.90;;;;;;4916813;29;19907;-76
2023/10/15 07:19:38;;;;;;;;;;;10.10;99.90;;;;;;4916847;29;19907;-77
2023/10/15 07:22:04;;;;;;;;;;;10.10;99.90;;;;;;4917056;29;19914;-76
2023/10/15 07:24:31;;;;;;;;;;;10.30;99.90;;;;;;4916936;29;19991;-71
2023/10/15 07:26:57;;;;;;;;;;;10.30;99.90;;;;;;4917263;29;19907;-72
2023/10/15 07:29:24;;;;;;;;;;;10.40;99.90;;;;;;4916923;29;20434;-72
2023/10/15 07:31:49;;;;;;;;;;;10.40;99.90;;;;;;4916798;29;19907;-76
2023/10/15 07:34:16;;;;;;;;;;;10.50;99.90;;;;;;4899672;29;20386;-72
2023/10/15 07:36:43;;;;;;;;;;;10.70;99.90;;;;;;4899811;29;19907;-77
2023/10/15 07:39:09;;;;;;;;;;;11.00;99.90;;;;;;4916848;29;20001;-77
2023/10/15 07:41:34;;;;;;;;;;;11.20;99.90;;;;;;4919352;29;20377;-77
2023/10/15 07:44:01;;;;;;;;;;;11.30;99.90;;;;;;4938941;29;19914;-72
2023/10/15 07:46:28;;;;;;;;;;;11.20;99.90;;;;;;4956281;29;19945;-73
2023/10/15 07:48:54;;;;;;;;;;;11.30;99.90;;;;;;4958701;29;20370;-77
2023/10/15 07:51:19;;;;;;;;;;;11.30;99.90;;;;;;4950419;29;19997;-77
2023/10/15 07:53:45;;;;;;;;;;;11.30;99.90;;;;;;4945483;29;19914;-77
2023/10/15 07:56:14;;;;;;;;;;;11.30;99.90;;;;;;4939228;29;20370;-71
2023/10/15 07:58:40;;;;;;;;;;;11.30;99.90;;;;;;4937870;29;20271;-71
2023/10/15 08:01:05;;;;;;;;;;;11.30;99.90;;;;;;4950837;29;20378;-77
2023/10/15 08:03:32;;;;;;;;;;;11.30;99.90;;;;;;4958583;29;19965;-72
2023/10/15 08:06:01;;;;;;;;;;;11.40;99.90;;;;;;4941018;29;19913;-77
2023/10/15 08:08:26;;;;;;;;;;;11.40;99.90;;;;;;4955419;29;19910;-76
2023/10/15 08:10:52;;;;;;;;;;;11.40;99.90;;;;;;4938261;29;20381;-71
2023/10/15 08:13:18;;;;;;;;;;;11.50;99.90;;;;;;4928342;29;20346;-71
2023/10/15 08:15:44;;;;;;;;;;;11.60;99.90;;;;;;4947905;29;19915;-77
2023/10/15 08:18:10;;;;;;;;;;;11.70;99.90;;;;;;4939128;29;20343;-77
2023/10/15 08:20:35;;;;;;;;;;;11.70;99.90;;;;;;4937379;29;19942;-77
2023/10/15 08:23:01;;;;;;;;;;;11.80;99.90;;;;;;4938886;29;20431;-72
2023/10/15 08:25:26;;;;;;;;;;;11.90;99.90;;;;;;4938688;29;19915;-71
2023/10/15 08:27:52;;;;;;;;;;;12.00;99.90;;;;;;4938479;29;20294;-77
2023/10/15 08:30:18;;;;;;;;;;;12.00;99.90;;;;;;4938838;29;19961;-72
2023/10/15 08:32:44;;;;;;;;;;;12.10;99.90;;;;;;4937186;29;19933;-77
2023/10/15 08:35:10;;;;;;;;;;;12.20;99.90;;;;;;4937199;29;19914;-72
2023/10/15 08:37:38;;;;;;;;;;;12.30;99.90;;;;;;4938638;29;19939;-72
2023/10/15 08:40:04;;;;;;;;;;;12.50;99.90;;;;;;4947081;29;19935;-77
2023/10/15 08:42:32;;;;;;;;;;;12.90;99.90;;;;;;4957683;29;19910;-77
2023/10/15 08:44:59;;;;;;;;;;;13.40;99.90;;;;;;4936956;29;19950;-72
2023/10/15 08:47:28;;;;;;;;;;;13.80;99.90;;;;;;4936990;29;19923;-77
2023/10/15 08:49:55;;;;;;;;;;;14.70;99.90;;;;;;4934814;29;20387;-72
2023/10/15 08:52:21;;;;;;;;;;;15.00;99.90;;;;;;4918298;29;19922;-77
2023/10/15 08:54:46;;;;;;;;;;;14.70;99.90;;;;;;4919165;29;20003;-72
2023/10/15 08:57:13;;;;;;;;;;;14.90;99.90;;;;;;4919062;29;20001;-78
2023/10/15 08:59:40;;;;;;;;;;;15.00;99.90;;;;;;4919437;29;19958;-77
2023/10/15 09:02:06;;;;;;;;;;;15.10;99.90;;;;;;4938057;29;19917;-72
2023/10/15 09:04:32;;;;;;;;;;;15.50;99.90;;;;;;4938470;29;19961;-73
2023/10/15 09:07:01;;;;;;;;;;;16.30;99.90;;;;;;4938084;29;19906;-78
2023/10/15 09:09:30;;;;;;;;;;;16.70;99.90;;;;;;4927199;29;19911;-77
2023/10/15 09:11:56;;;;;;;;;;;17.10;99.90;;;;;;4908959;29;19915;-78
2023/10/15 09:14:40;;;;;;;;;;;18.00;99.90;;;;;;4906244;29;19911;-73
2023/10/15 09:17:10;;;;;;;;;;;18.90;99.90;;;;;;4917782;29;19907;-73
2023/10/15 09:19:37;;;;;;;;;;;19.10;99.90;;;;;;4919182;29;19911;-72
2023/10/15 09:22:03;;;;;;;;;;;18.20;99.90;;;;;;4918805;29;19907;-78
2023/10/15 09:24:29;;;;;;;;;;;17.80;99.90;;;;;;4918804;29;19998;-73
2023/10/15 09:26:57;;;;;;;;;;;17.40;99.90;;;;;;4917364;29;20370;-73
2023/10/15 09:29:22;;;;;;;;;;;16.90;99.90;;;;;;4918718;29;20010;-72
2023/10/15 09:31:49;;;;;;;;;;;16.10;99.90;;;;;;4918734;29;19962;-73
2023/10/15 09:34:14;;;;;;;;;;;15.80;99.90;;;;;;4918477;29;19911;-78
2023/10/15 09:36:40;;;;;;;;;;;15.70;99.90;;;;;;4918625;29;19930;-76
2023/10/15 09:39:12;;;;;;;;;;;15.50;99.90;;;;;;4918326;29;20264;-78
2023/10/15 09:41:40;;;;;;;;;;;15.30;99.90;;;;;;4918303;29;19907;-73
2023/10/15 09:44:06;;;;;;;;;;;15.30;99.90;;;;;;4918742;29;19986;-72
2023/10/15 09:46:32;;;;;;;;;;;15.40;99.90;;;;;;4953006;29;20433;-78
2023/10/15 09:48:59;;;;;;;;;;;15.50;99.90;;;;;;4956309;29;19906;-73
2023/10/15 09:51:26;;;;;;;;;;;15.60;99.90;;;;;;4948409;29;20441;-78
2023/10/15 09:53:52;;;;;;;;;;;16.00;99.90;;;;;;4942419;29;19966;-78
2023/10/15 09:56:19;;;;;;;;;;;16.40;99.90;;;;;;4936548;29;19913;-73
2023/10/15 09:58:44;;;;;;;;;;;16.50;99.90;;;;;;4936973;29;19914;-73
2023/10/15 10:01:25;;;;;;;;;;;16.60;99.90;;;;;;4949153;29;20370;-78
2023/10/15 10:04:14;;;;;;;;;;;16.80;99.90;;;;;;4955330;28;19907;-78
2023/10/15 10:06:58;;;;;;;;;;;17.00;99.90;;;;;;4955967;29;19910;-72
2023/10/15 10:09:39;;;;;;;;;;;17.20;99.90;;;;;;4945592;29;20334;-72
2023/10/15 10:12:05;;;;;;;;;;;17.30;99.90;;;;;;4926758;29;19941;-73
2023/10/15 10:14:50;;;;;;;;;;;17.40;99.90;;;;;;4917806;29;19954;-78
2023/10/15 10:17:18;;;;;;;;;;;17.30;99.90;;;;;;4917813;29;19910;-72
2023/10/15 10:19:43;;;;;;;;;;;17.20;99.90;;;;;;4900646;29;19907;-73
2023/10/15 10:22:38;;;;;;;;;;;17.10;99.90;;;;;;4900569;29;19958;-72
2023/10/15 10:25:04;;;;;;;;;;;17.30;99.90;;;;;;4905246;29;19907;-77
2023/10/15 10:27:50;;;;;;;;;;;17.40;99.90;;;;;;4917593;29;19907;-77
2023/10/15 10:30:27;;;;;;;;;;;17.20;99.90;;;;;;4900422;29;19918;-72
2023/10/15 10:32:56;;;;;;;;;;;16.90;99.90;;;;;;4900328;29;19946;-72
2023/10/15 10:35:26;;;;;;;;;;;16.40;99.90;;;;;;4917756;29;19918;-72
2023/10/15 10:38:06;;;;;;;;;;;16.30;99.90;;;;;;4917413;29;19934;-77
2023/10/15 10:40:43;;;;;;;;;;;16.50;99.90;;;;;;4917361;29;19907;-77
2023/10/15 10:43:19;;;;;;;;;;;16.80;99.90;;;;;;4917287;29;19936;-77
2023/10/15 10:45:52;;;;;;;;;;;16.80;99.90;;;;;;4917165;29;19950;-77
2023/10/15 10:48:24;;;;;;;;;;;16.70;99.90;;;;;;4900177;29;19935;-73
2023/10/15 10:51:08;;;;;;;;;;;16.50;99.90;;;;;;4925260;29;19966;-72
2023/10/15 10:54:00;;;;;;;;;;;16.50;99.90;;;;;;4927858;29;20009;-77
2023/10/15 10:56:40;;;;;;;;;;;16.70;99.90;;;;;;4921136;29;20285;-72
2023/10/15 10:59:06;;;;;;;;;;;16.70;99.90;;;;;;4936157;29;20456;-72
2023/10/15 11:01:39;;;;;;;;;;;16.50;99.90;;;;;;4951209;29;19906;-77
2023/10/15 11:04:05;;;;;;;;;;;16.50;99.90;;;;;;4938015;29;19913;-77
2023/10/15 11:06:32;;;;;;;;;;;16.70;99.90;;;;;;4955515;29;19906;-77
2023/10/15 11:08:58;;;;;;;;;;;16.70;99.90;;;;;;4948197;29;19917;-77
2023/10/15 11:11:24;;;;;;;;;;;16.80;99.90;;;;;;4931374;29;19911;-72
2023/10/15 11:13:50;;;;;;;;;;;16.80;99.90;;;;;;4916738;29;19915;-72
2023/10/15 11:16:15;;;;;;;;;;;16.80;99.90;;;;;;4922525;29;19910;-77
2023/10/15 11:18:42;;;;;;;;;;;16.80;99.90;;;;;;4923285;29;19907;-76
2023/10/15 11:21:09;;;;;;;;;;;16.90;99.90;;;;;;4923235;29;19914;-76
2023/10/15 11:23:34;;;;;;;;;;;16.80;99.90;;;;;;4955803;29;19910;-77
2023/10/15 11:25:59;;;;;;;;;;;17.00;99.90;;;;;;4961398;29;20377;-77
2023/10/15 11:28:25;;;;;;;;;;;17.00;99.90;;;;;;4961597;29;19918;-77
2023/10/15 11:30:51;;;;;;;;;;;17.20;99.90;;;;;;4961591;28;19914;-77
2023/10/15 11:33:17;;;;;;;;;;;17.20;99.90;;;;;;4961218;28;19911;-77
2023/10/15 11:35:45;;;;;;;;;;;17.30;99.90;;;;;;4944116;29;19914;-77
2023/10/15 11:38:10;;;;;;;;;;;17.30;99.90;;;;;;4961211;28;19960;-72
2023/10/15 11:40:39;;;;;;;;;;;17.60;99.90;;;;;;4961452;29;19938;-72
2023/10/15 11:43:25;;;;;;;;;;;17.80;99.90;;;;;;4943904;29;19956;-77
2023/10/15 11:45:56;;;;;;;;;;;17.80;99.90;;;;;;4948556;29;20287;-77
2023/10/15 11:48:21;;;;;;;;;;;17.90;99.90;;;;;;4942184;29;19911;-77
2023/10/15 11:50:48;;;;;;;;;;;17.70;99.90;;;;;;4932612;29;20418;-73
2023/10/15 11:53:16;;;;;;;;;;;17.70;99.90;;;;;;4921554;29;20285;-73
2023/10/15 11:55:47;;;;;;;;;;;17.80;99.90;;;;;;4922928;29;19990;-77
2023/10/15 11:58:16;;;;;;;;;;;17.60;99.90;;;;;;4922579;29;19907;-73
2023/10/15 12:00:42;;;;;;;;;;;17.70;99.90;;;;;;4922724;29;20458;-77
2023/10/15 12:03:09;;;;;;;;;;;17.80;99.90;;;;;;4922781;29;19946;-73
2023/10/15 12:05:35;;;;;;;;;;;17.90;99.90;;;;;;4922983;29;19907;-72
2023/10/15 12:08:01;;;;;;;;;;;18.00;99.90;;;;;;4905934;29;20368;-77
2023/10/15 12:10:27;;;;;;;;;;;18.10;99.90;;;;;;4922181;29;19946;-77
2023/10/15 12:12:52;;;;;;;;;;;18.00;99.90;;;;;;4902541;29;19961;-77
2023/10/15 12:15:18;;;;;;;;;;;17.90;99.90;;;;;;4941614;29;19906;-72
2023/10/15 12:17:43;;;;;;;;;;;17.90;99.90;;;;;;4941862;29;19906;-73
2023/10/15 12:20:12;;;;;;;;;;;17.80;99.90;;;;;;4941989;29;19907;-72
2023/10/15 12:22:37;;;;;;;;;;;17.90;99.90;;;;;;4941641;29;19911;-72
2023/10/15 12:25:03;;;;;;;;;;;18.10;99.90;;;;;;4941899;29;19914;-77
2023/10/15 12:27:29;;;;;;;;;;;17.90;99.90;;;;;;4921250;29;20291;-77
2023/10/15 12:29:54;;;;;;;;;;;17.90;99.90;;;;;;4921437;29;19910;-73
2023/10/15 12:32:20;;;;;;;;;;;17.80;99.90;;;;;;4938789;29;19914;-72
2023/10/15 12:34:46;;;;;;;;;;;17.80;99.90;;;;;;4938637;29;19906;-77
2023/10/15 12:37:13;;;;;;;;;;;17.80;99.90;;;;;;4938641;29;19914;-77
2023/10/15 12:39:44;;;;;;;;;;;18.00;99.90;;;;;;4938413;29;20417;-77
2023/10/15 12:42:11;;;;;;;;;;;18.20;99.90;;;;;;4921456;29;19934;-72
2023/10/15 12:44:40;;;;;;;;;;;18.50;99.90;;;;;;4938549;29;20286;-73
2023/10/15 12:47:08;;;;;;;;;;;18.60;99.90;;;;;;4938701;29;19911;-77
2023/10/15 12:49:34;;;;;;;;;;;18.80;99.90;;;;;;4938477;29;20397;-72
2023/10/15 12:51:59;;;;;;;;;;;18.70;99.90;;;;;;4919797;29;19911;-77
2023/10/15 12:54:25;;;;;;;;;;;18.80;99.90;;;;;;4918410;29;19919;-77
2023/10/15 12:56:51;;;;;;;;;;;18.80;99.90;;;;;;4919363;29;20349;-72
2023/10/15 12:59:17;;;;;;;;;;;18.70;99.90;;;;;;4919234;29;19911;-77
2023/10/15 13:01:42;;;;;;;;;;;18.40;99.90;;;;;;4919154;29;20278;-77
2023/10/15 13:04:08;;;;;;;;;;;18.40;99.90;;;;;;4919032;29;19907;-78
2023/10/15 13:06:35;;;;;;;;;;;18.30;99.90;;;;;;4918975;29;19914;-77
2023/10/15 13:09:08;;;;;;;;;;;18.30;99.90;;;;;;4918588;29;19911;-72
2023/10/15 13:11:37;;;;;;;;;;;18.40;99.90;;;;;;4896062;29;19911;-72
2023/10/15 13:14:02;;;;;;;;;;;18.50;99.90;;;;;;4900094;29;20051;-73
2023/10/15 13:16:29;;;;;;;;;;;18.60;99.90;;;;;;4899917;29;19950;-77
2023/10/15 13:18:56;;;;;;;;;;;18.50;99.90;;;;;;4899044;29;20020;-73
2023/10/15 13:21:22;;;;;;;;;;;18.50;99.90;;;;;;4882473;29;19951;-74
2023/10/15 13:23:47;;;;;;;;;;;18.40;99.90;;;;;;4900140;29;19950;-77
2023/10/15 13:26:13;;;;;;;;;;;18.50;99.90;;;;;;4899731;29;20371;-77
2023/10/15 13:28:39;;;;;;;;;;;18.30;99.90;;;;;;4899825;29;19907;-77
2023/10/15 13:31:06;;;;;;;;;;;18.40;99.90;;;;;;4899836;29;19908;-77
2023/10/15 13:33:32;;;;;;;;;;;18.40;99.90;;;;;;4899636;29;19911;-77
2023/10/15 13:35:58;;;;;;;;;;;18.20;99.90;;;;;;4899841;29;19908;-73
2023/10/15 13:38:24;;;;;;;;;;;18.20;99.90;;;;;;4898615;29;19946;-73
2023/10/15 13:40:50;;;;;;;;;;;18.20;99.90;;;;;;4882569;29;19975;-78
2023/10/15 13:43:15;;;;;;;;;;;18.10;99.70;;;;;;4899342;29;20005;-77
2023/10/15 13:45:42;;;;;;;;;;;18.00;99.80;;;;;;4909797;29;19930;-77
2023/10/15 13:48:07;;;;;;;;;;;18.00;99.90;;;;;;4901344;29;19950;-72
2023/10/15 13:50:34;;;;;;;;;;;17.90;99.90;;;;;;4923553;29;19957;-72
2023/10/15 13:52:59;;;;;;;;;;;17.70;99.90;;;;;;4937076;29;19962;-76
2023/10/15 13:55:25;;;;;;;;;;;17.70;99.90;;;;;;4935498;29;19915;-77
2023/10/15 13:57:52;;;;;;;;;;;17.70;99.90;;;;;;4937194;29;20294;-77
2023/10/15 14:00:21;;;;;;;;;;;17.80;99.90;;;;;;4942412;29;19906;-73
2023/10/15 14:02:48;;;;;;;;;;;17.80;99.90;;;;;;4956497;29;19906;-73
2023/10/15 14:05:17;;;;;;;;;;;17.80;99.90;;;;;;4956126;29;19933;-77
2023/10/15 14:07:44;;;;;;;;;;;17.80;99.90;;;;;;4938732;29;19911;-77
2023/10/15 14:10:12;;;;;;;;;;;17.80;99.90;;;;;;4939559;29;19913;-77
2023/10/15 14:12:38;;;;;;;;;;;17.80;99.90;;;;;;4922449;29;20005;-77
2023/10/15 14:15:04;;;;;;;;;;;17.90;99.90;;;;;;4917915;29;19907;-72
2023/10/15 14:17:31;;;;;;;;;;;17.90;99.90;;;;;;4917632;29;19907;-77
2023/10/15 14:19:58;;;;;;;;;;;18.00;99.90;;;;;;4921390;29;19961;-77
2023/10/15 14:22:24;;;;;;;;;;;17.80;99.90;;;;;;4955872;29;20394;-77
2023/10/15 14:24:50;;;;;;;;;;;17.70;99.90;;;;;;4955934;29;19931;-77
2023/10/15 14:27:15;;;;;;;;;;;17.60;99.90;;;;;;4938308;29;19915;-72
2023/10/15 14:29:41;;;;;;;;;;;17.50;99.90;;;;;;4955912;29;19945;-72
2023/10/15 14:32:07;;;;;;;;;;;17.50;99.90;;;;;;4955592;29;20301;-77
2023/10/15 14:34:35;;;;;;;;;;;17.40;99.90;;;;;;4955635;29;19906;-77
2023/10/15 14:37:01;;;;;;;;;;;17.30;99.90;;;;;;4955673;29;19989;-77